sensor_id;sensor_type;location;lat;lon;timestamp;temperature;humidity
47434;SHT31;33184;48.774;8.918;2023-04-25T00:02:22;7.59;76.60
47434;SHT31;33184;48.774;8.918;2023-04-25T00:07:43;7.59;76.71
47434;SHT31;33184;48.774;8.918;2023-04-25T00:13:03;7.55;77.06
47434;SHT31;33184;48.774;8.918;2023-04-25T00:18:24;7.54;76.95
47434;SHT31;33184;48.774;8.918;2023-04-25T00:23:45;7.46;77.58
47434;SHT31;33184;48.774;8.918;2023-04-25T00:29:06;7.42;77.47
47434;SHT31;33184;48.774;8.918;2023-04-25T00:34:26;7.42;77.89
47434;SHT31;33184;48.774;8.918;2023-04-25T00:39:47;7.42;77.97
47434;SHT31;33184;48.774;8.918;2023-04-25T00:45:12;7.46;78.10
47434;SHT31;33184;48.774;8.918;2023-04-25T00:50:35;7.49;78.30
47434;SHT31;33184;48.774;8.918;2023-04-25T00:55:56;7.41;78.53
47434;SHT31;33184;48.774;8.918;2023-04-25T01:01:17;7.38;78.88
47434;SHT31;33184;48.774;8.918;2023-04-25T01:06:38;7.35;79.24
47434;SHT31;33184;48.774;8.918;2023-04-25T01:11:59;7.31;79.18
47434;SHT31;33184;48.774;8.918;2023-04-25T01:17:20;7.35;79.14
47434;SHT31;33184;48.774;8.918;2023-04-25T01:22:42;7.35;79.13
47434;SHT31;33184;48.774;8.918;2023-04-25T01:28:03;7.27;79.27
47434;SHT31;33184;48.774;8.918;2023-04-25T01:33:25;7.21;79.54
47434;SHT31;33184;48.774;8.918;2023-04-25T01:38:46;7.14;79.65
47434;SHT31;33184;48.774;8.918;2023-04-25T01:44:07;6.97;80.45
47434;SHT31;33184;48.774;8.918;2023-04-25T01:49:28;6.94;80.68
47434;SHT31;33184;48.774;8.918;2023-04-25T01:54:50;6.90;80.75
47434;SHT31;33184;48.774;8.918;2023-04-25T02:00:12;7.00;80.53
47434;SHT31;33184;48.774;8.918;2023-04-25T02:05:36;7.07;80.27
47434;SHT31;33184;48.774;8.918;2023-04-25T02:10:59;7.10;80.16
47434;SHT31;33184;48.774;8.918;2023-04-25T02:16:26;6.99;80.34
47434;SHT31;33184;48.774;8.918;2023-04-25T02:21:47;6.97;80.58
47434;SHT31;33184;48.774;8.918;2023-04-25T02:27:07;6.97;80.57
47434;SHT31;33184;48.774;8.918;2023-04-25T02:32:29;6.83;81.04
47434;SHT31;33184;48.774;8.918;2023-04-25T02:37:50;6.75;81.56
47434;SHT31;33184;48.774;8.918;2023-04-25T02:43:11;6.76;81.95
47434;SHT31;33184;48.774;8.918;2023-04-25T02:48:31;6.83;81.65
47434;SHT31;33184;48.774;8.918;2023-04-25T02:53:52;6.77;81.57
47434;SHT31;33184;48.774;8.918;2023-04-25T02:59:13;6.68;82.06
47434;SHT31;33184;48.774;8.918;2023-04-25T03:04:33;6.68;82.46
47434;SHT31;33184;48.774;8.918;2023-04-25T03:09:54;6.79;82.34
47434;SHT31;33184;48.774;8.918;2023-04-25T03:15:17;6.73;82.17
47434;SHT31;33184;48.774;8.918;2023-04-25T03:20:37;6.73;82.27
47434;SHT31;33184;48.774;8.918;2023-04-25T03:25:59;6.69;82.09
47434;SHT31;33184;48.774;8.918;2023-04-25T03:31:21;6.59;82.16
47434;SHT31;33184;48.774;8.918;2023-04-25T03:36:42;6.60;82.34
47434;SHT31;33184;48.774;8.918;2023-04-25T03:42:04;6.68;82.08
47434;SHT31;33184;48.774;8.918;2023-04-25T03:47:25;6.79;81.80
47434;SHT31;33184;48.774;8.918;2023-04-25T03:52:46;6.89;81.73
47434;SHT31;33184;48.774;8.918;2023-04-25T03:58:07;6.97;81.62
47434;SHT31;33184;48.774;8.918;2023-04-25T04:03:29;6.99;81.16
47434;SHT31;33184;48.774;8.918;2023-04-25T04:08:50;6.90;81.16
47434;SHT31;33184;48.774;8.918;2023-04-25T04:14:11;6.72;81.15
47434;SHT31;33184;48.774;8.918;2023-04-25T04:19:37;6.36;82.35
47434;SHT31;33184;48.774;8.918;2023-04-25T04:25:07;6.29;82.94
47434;SHT31;33184;48.774;8.918;2023-04-25T04:30:48;6.50;83.19
47434;SHT31;33184;48.774;8.918;2023-04-25T04:36:12;6.48;82.37
47434;SHT31;33184;48.774;8.918;2023-04-25T04:41:33;6.36;82.79
47434;SHT31;33184;48.774;8.918;2023-04-25T04:47:03;6.39;82.93
47434;SHT31;33184;48.774;8.918;2023-04-25T04:52:45;6.56;82.88
47434;SHT31;33184;48.774;8.918;2023-04-25T04:58:24;6.68;82.54
47434;SHT31;33184;48.774;8.918;2023-04-25T05:04:03;6.68;82.69
47434;SHT31;33184;48.774;8.918;2023-04-25T05:09:40;6.66;82.68
47434;SHT31;33184;48.774;8.918;2023-04-25T05:15:11;6.69;82.32
47434;SHT31;33184;48.774;8.918;2023-04-25T05:20:58;6.69;82.22
47434;SHT31;33184;48.774;8.918;2023-04-25T05:26:54;6.66;82.21
47434;SHT31;33184;48.774;8.918;2023-04-25T05:32:48;6.70;82.36
47434;SHT31;33184;48.774;8.918;2023-04-25T05:38:09;6.75;82.40
47434;SHT31;33184;48.774;8.918;2023-04-25T05:43:49;6.91;82.58
47434;SHT31;33184;48.774;8.918;2023-04-25T05:49:32;6.90;81.58
47434;SHT31;33184;48.774;8.918;2023-04-25T05:55:11;6.90;81.58
47434;SHT31;33184;48.774;8.918;2023-04-25T06:00:33;6.89;81.50
47434;SHT31;33184;48.774;8.918;2023-04-25T06:05:54;6.96;82.93
47434;SHT31;33184;48.774;8.918;2023-04-25T06:11:14;6.89;83.47
47434;SHT31;33184;48.774;8.918;2023-04-25T06:16:35;6.91;84.08
47434;SHT31;33184;48.774;8.918;2023-04-25T06:21:56;6.89;84.02
47434;SHT31;33184;48.774;8.918;2023-04-25T06:27:17;6.83;84.41
47434;SHT31;33184;48.774;8.918;2023-04-25T06:32:38;6.77;85.19
47434;SHT31;33184;48.774;8.918;2023-04-25T06:37:59;6.77;85.73
47434;SHT31;33184;48.774;8.918;2023-04-25T06:43:20;6.65;85.46
47434;SHT31;33184;48.774;8.918;2023-04-25T06:48:43;6.56;86.26
47434;SHT31;33184;48.774;8.918;2023-04-25T06:54:05;6.50;86.54
47434;SHT31;33184;48.774;8.918;2023-04-25T06:59:36;6.52;86.78
47434;SHT31;33184;48.774;8.918;2023-04-25T07:04:57;6.57;86.82
47434;SHT31;33184;48.774;8.918;2023-04-25T07:10:20;6.48;86.86
47434;SHT31;33184;48.774;8.918;2023-04-25T07:15:43;6.53;87.44
47434;SHT31;33184;48.774;8.918;2023-04-25T07:21:05;6.45;87.50
47434;SHT31;33184;48.774;8.918;2023-04-25T07:26:28;6.39;87.78
47434;SHT31;33184;48.774;8.918;2023-04-25T07:32:14;6.38;88.25
47434;SHT31;33184;48.774;8.918;2023-04-25T07:37:37;6.43;88.95
47434;SHT31;33184;48.774;8.918;2023-04-25T07:43:08;6.30;89.25
47434;SHT31;33184;48.774;8.918;2023-04-25T07:48:40;6.28;89.45
47434;SHT31;33184;48.774;8.918;2023-04-25T07:54:00;6.22;88.84
47434;SHT31;33184;48.774;8.918;2023-04-25T07:59:22;6.28;89.02
47434;SHT31;33184;48.774;8.918;2023-04-25T08:04:44;6.33;89.38
47434;SHT31;33184;48.774;8.918;2023-04-25T08:10:07;6.40;89.43
47434;SHT31;33184;48.774;8.918;2023-04-25T08:15:28;6.50;89.72
47434;SHT31;33184;48.774;8.918;2023-04-25T08:20:49;6.54;89.52
47434;SHT31;33184;48.774;8.918;2023-04-25T08:26:10;6.53;89.55
47434;SHT31;33184;48.774;8.918;2023-04-25T08:31:32;6.68;89.81
47434;SHT31;33184;48.774;8.918;2023-04-25T08:36:56;6.65;89.11
47434;SHT31;33184;48.774;8.918;2023-04-25T08:42:33;6.81;89.13
47434;SHT31;33184;48.774;8.918;2023-04-25T08:47:57;6.76;88.90
47434;SHT31;33184;48.774;8.918;2023-04-25T08:53:37;6.90;88.85
47434;SHT31;33184;48.774;8.918;2023-04-25T08:59:01;6.66;89.09
47434;SHT31;33184;48.774;8.918;2023-04-25T09:04:22;6.52;89.62
47434;SHT31;33184;48.774;8.918;2023-04-25T09:09:44;6.29;90.53
47434;SHT31;33184;48.774;8.918;2023-04-25T09:15:10;6.26;90.69
47434;SHT31;33184;48.774;8.918;2023-04-25T09:20:49;6.04;88.81
47434;SHT31;33184;48.774;8.918;2023-04-25T09:26:15;5.99;89.09
47434;SHT31;33184;48.774;8.918;2023-04-25T09:31:38;5.95;88.94
47434;SHT31;33184;48.774;8.918;2023-04-25T09:37:01;5.94;89.18
47434;SHT31;33184;48.774;8.918;2023-04-25T09:42:42;5.97;89.57
47434;SHT31;33184;48.774;8.918;2023-04-25T09:48:03;6.01;89.35
47434;SHT31;33184;48.774;8.918;2023-04-25T09:53:29;5.99;89.47
47434;SHT31;33184;48.774;8.918;2023-04-25T09:59:03;5.97;89.49
47434;SHT31;33184;48.774;8.918;2023-04-25T10:04:25;5.99;89.09
47434;SHT31;33184;48.774;8.918;2023-04-25T10:10:03;5.97;89.20
47434;SHT31;33184;48.774;8.918;2023-04-25T10:15:24;5.97;89.45
47434;SHT31;33184;48.774;8.918;2023-04-25T10:20:45;6.06;89.34
47434;SHT31;33184;48.774;8.918;2023-04-25T10:26:06;6.14;89.07
47434;SHT31;33184;48.774;8.918;2023-04-25T10:31:32;6.14;88.83
47434;SHT31;33184;48.774;8.918;2023-04-25T10:36:53;6.14;89.11
47434;SHT31;33184;48.774;8.918;2023-04-25T10:42:13;6.29;89.56
47434;SHT31;33184;48.774;8.918;2023-04-25T10:47:43;6.39;89.50
47434;SHT31;33184;48.774;8.918;2023-04-25T10:53:14;6.24;88.89
47434;SHT31;33184;48.774;8.918;2023-04-25T10:58:35;6.42;89.24
47434;SHT31;33184;48.774;8.918;2023-04-25T11:03:59;6.52;88.45
47434;SHT31;33184;48.774;8.918;2023-04-25T11:09:23;6.59;87.78
47434;SHT31;33184;48.774;8.918;2023-04-25T11:14:44;6.46;87.40
47434;SHT31;33184;48.774;8.918;2023-04-25T11:20:05;6.65;88.01
47434;SHT31;33184;48.774;8.918;2023-04-25T11:25:31;6.70;87.20
47434;SHT31;33184;48.774;8.918;2023-04-25T11:30:52;6.62;86.72
47434;SHT31;33184;48.774;8.918;2023-04-25T11:36:12;6.54;86.57
47434;SHT31;33184;48.774;8.918;2023-04-25T11:41:33;6.69;87.18
47434;SHT31;33184;48.774;8.918;2023-04-25T11:46:55;6.65;85.65
47434;SHT31;33184;48.774;8.918;2023-04-25T11:52:15;6.59;85.89
47434;SHT31;33184;48.774;8.918;2023-04-25T11:57:38;6.66;85.45
47434;SHT31;33184;48.774;8.918;2023-04-25T12:02:59;6.62;85.22
47434;SHT31;33184;48.774;8.918;2023-04-25T12:08:20;6.49;85.51
47434;SHT31;33184;48.774;8.918;2023-04-25T12:13:43;6.53;85.65
47434;SHT31;33184;48.774;8.918;2023-04-25T12:19:04;6.79;85.38
47434;SHT31;33184;48.774;8.918;2023-04-25T12:24:26;6.90;84.69
47434;SHT31;33184;48.774;8.918;2023-04-25T12:29:52;6.89;84.19
47434;SHT31;33184;48.774;8.918;2023-04-25T12:35:12;6.90;84.15
47434;SHT31;33184;48.774;8.918;2023-04-25T12:40:33;7.10;84.55
47434;SHT31;33184;48.774;8.918;2023-04-25T12:45:55;7.52;84.28
47434;SHT31;33184;48.774;8.918;2023-04-25T12:51:15;7.96;81.45
47434;SHT31;33184;48.774;8.918;2023-04-25T12:56:36;7.90;81.89
47434;SHT31;33184;48.774;8.918;2023-04-25T13:01:56;7.83;81.40
47434;SHT31;33184;48.774;8.918;2023-04-25T13:07:17;7.87;81.25
47434;SHT31;33184;48.774;8.918;2023-04-25T13:12:37;8.02;82.50
47434;SHT31;33184;48.774;8.918;2023-04-25T13:17:58;8.10;82.75
47434;SHT31;33184;48.774;8.918;2023-04-25T13:23:19;8.44;82.08
47434;SHT31;33184;48.774;8.918;2023-04-25T13:28:43;8.58;78.30
47434;SHT31;33184;48.774;8.918;2023-04-25T13:34:03;8.36;78.52
47434;SHT31;33184;48.774;8.918;2023-04-25T13:39:24;8.58;79.12
47434;SHT31;33184;48.774;8.918;2023-04-25T13:44:45;9.32;77.54
47434;SHT31;33184;48.774;8.918;2023-04-25T13:50:06;10.43;71.95
47434;SHT31;33184;48.774;8.918;2023-04-25T13:55:27;9.61;74.04
47434;SHT31;33184;48.774;8.918;2023-04-25T14:00:48;9.33;75.90
47434;SHT31;33184;48.774;8.918;2023-04-25T14:06:08;10.02;72.95
47434;SHT31;33184;48.774;8.918;2023-04-25T14:11:29;9.78;75.32
47434;SHT31;33184;48.774;8.918;2023-04-25T14:16:51;10.19;73.89
47434;SHT31;33184;48.774;8.918;2023-04-25T14:22:11;9.88;73.31
47434;SHT31;33184;48.774;8.918;2023-04-25T14:27:32;9.53;73.65
47434;SHT31;33184;48.774;8.918;2023-04-25T14:32:53;9.22;73.06
47434;SHT31;33184;48.774;8.918;2023-04-25T14:38:14;9.51;73.35
47434;SHT31;33184;48.774;8.918;2023-04-25T14:43:35;9.97;72.87
47434;SHT31;33184;48.774;8.918;2023-04-25T14:48:56;10.39;69.35
47434;SHT31;33184;48.774;8.918;2023-04-25T14:54:17;10.89;68.56
47434;SHT31;33184;48.774;8.918;2023-04-25T14:59:37;10.58;65.87
47434;SHT31;33184;48.774;8.918;2023-04-25T15:04:58;10.53;66.69
47434;SHT31;33184;48.774;8.918;2023-04-25T15:10:19;10.45;66.95
47434;SHT31;33184;48.774;8.918;2023-04-25T15:15:40;11.77;65.38
47434;SHT31;33184;48.774;8.918;2023-04-25T15:21:04;11.47;64.52
47434;SHT31;33184;48.774;8.918;2023-04-25T15:26:24;10.75;64.92
47434;SHT31;33184;48.774;8.918;2023-04-25T15:31:45;10.39;66.45
47434;SHT31;33184;48.774;8.918;2023-04-25T15:37:06;10.52;67.99
47434;SHT31;33184;48.774;8.918;2023-04-25T15:42:27;10.96;67.20
47434;SHT31;33184;48.774;8.918;2023-04-25T15:47:47;10.48;67.18
47434;SHT31;33184;48.774;8.918;2023-04-25T15:53:08;9.94;67.42
47434;SHT31;33184;48.774;8.918;2023-04-25T15:58:29;9.81;68.98
47434;SHT31;33184;48.774;8.918;2023-04-25T16:03:50;9.87;69.56
47434;SHT31;33184;48.774;8.918;2023-04-25T16:09:12;9.97;69.83
47434;SHT31;33184;48.774;8.918;2023-04-25T16:14:32;9.88;70.10
47434;SHT31;33184;48.774;8.918;2023-04-25T16:20:00;9.73;70.22
47434;SHT31;33184;48.774;8.918;2023-04-25T16:25:29;9.61;70.95
47434;SHT31;33184;48.774;8.918;2023-04-25T16:30:49;9.60;70.80
47434;SHT31;33184;48.774;8.918;2023-04-25T16:36:10;9.39;70.55
47434;SHT31;33184;48.774;8.918;2023-04-25T16:41:32;9.39;71.33
47434;SHT31;33184;48.774;8.918;2023-04-25T16:46:52;9.44;71.80
47434;SHT31;33184;48.774;8.918;2023-04-25T16:52:13;9.36;71.32
47434;SHT31;33184;48.774;8.918;2023-04-25T16:57:35;9.15;71.23
47434;SHT31;33184;48.774;8.918;2023-04-25T17:02:56;8.95;72.52
47434;SHT31;33184;48.774;8.918;2023-04-25T17:08:17;8.98;73.10
47434;SHT31;33184;48.774;8.918;2023-04-25T17:13:37;8.76;74.39
47434;SHT31;33184;48.774;8.918;2023-04-25T17:18:58;8.67;75.81
47434;SHT31;33184;48.774;8.918;2023-04-25T17:24:19;8.67;77.49
47434;SHT31;33184;48.774;8.918;2023-04-25T17:29:41;8.24;77.02
47434;SHT31;33184;48.774;8.918;2023-04-25T17:35:01;7.63;78.45
47434;SHT31;33184;48.774;8.918;2023-04-25T17:40:23;7.27;79.55
47434;SHT31;33184;48.774;8.918;2023-04-25T17:45:43;7.24;81.13
47434;SHT31;33184;48.774;8.918;2023-04-25T17:51:04;7.25;82.68
47434;SHT31;33184;48.774;8.918;2023-04-25T17:56:26;7.11;83.08
47434;SHT31;33184;48.774;8.918;2023-04-25T18:01:47;7.00;82.51
47434;SHT31;33184;48.774;8.918;2023-04-25T18:07:07;7.03;82.39
47434;SHT31;33184;48.774;8.918;2023-04-25T18:12:28;7.15;82.67
47434;SHT31;33184;48.774;8.918;2023-04-25T18:17:48;7.21;81.93
47434;SHT31;33184;48.774;8.918;2023-04-25T18:23:09;7.20;82.11
47434;SHT31;33184;48.774;8.918;2023-04-25T18:28:29;7.25;81.79
47434;SHT31;33184;48.774;8.918;2023-04-25T18:33:50;7.13;81.60
47434;SHT31;33184;48.774;8.918;2023-04-25T18:39:11;7.13;81.53
47434;SHT31;33184;48.774;8.918;2023-04-25T18:44:31;7.20;81.57
47434;SHT31;33184;48.774;8.918;2023-04-25T18:49:55;7.14;81.10
47434;SHT31;33184;48.774;8.918;2023-04-25T18:55:16;6.99;81.43
47434;SHT31;33184;48.774;8.918;2023-04-25T19:00:36;6.90;82.41
47434;SHT31;33184;48.774;8.918;2023-04-25T19:05:57;6.87;83.16
47434;SHT31;33184;48.774;8.918;2023-04-25T19:11:18;6.77;83.47
47434;SHT31;33184;48.774;8.918;2023-04-25T19:16:39;6.87;84.15
47434;SHT31;33184;48.774;8.918;2023-04-25T19:21:59;7.00;84.21
47434;SHT31;33184;48.774;8.918;2023-04-25T19:27:20;6.73;84.53
47434;SHT31;33184;48.774;8.918;2023-04-25T19:32:41;6.50;85.63
47434;SHT31;33184;48.774;8.918;2023-04-25T19:38:02;6.45;85.74
47434;SHT31;33184;48.774;8.918;2023-04-25T19:43:22;6.49;86.09
47434;SHT31;33184;48.774;8.918;2023-04-25T19:48:43;6.53;85.75
47434;SHT31;33184;48.774;8.918;2023-04-25T19:54:03;6.54;85.64
47434;SHT31;33184;48.774;8.918;2023-04-25T19:59:24;6.52;85.68
47434;SHT31;33184;48.774;8.918;2023-04-25T20:04:45;6.50;86.06
47434;SHT31;33184;48.774;8.918;2023-04-25T20:10:07;6.43;86.49
47434;SHT31;33184;48.774;8.918;2023-04-25T20:15:28;6.48;86.34
47434;SHT31;33184;48.774;8.918;2023-04-25T20:20:48;6.45;86.36
47434;SHT31;33184;48.774;8.918;2023-04-25T20:26:09;6.46;86.27
47434;SHT31;33184;48.774;8.918;2023-04-25T20:31:31;6.49;86.13
47434;SHT31;33184;48.774;8.918;2023-04-25T20:36:53;6.53;85.98
47434;SHT31;33184;48.774;8.918;2023-04-25T20:42:15;6.53;85.97
47434;SHT31;33184;48.774;8.918;2023-04-25T20:47:35;6.45;85.86
47434;SHT31;33184;48.774;8.918;2023-04-25T20:52:56;6.42;86.05
47434;SHT31;33184;48.774;8.918;2023-04-25T20:58:17;6.48;85.73
47434;SHT31;33184;48.774;8.918;2023-04-25T21:03:37;6.52;85.43
47434;SHT31;33184;48.774;8.918;2023-04-25T21:08:59;6.50;84.94
47434;SHT31;33184;48.774;8.918;2023-04-25T21:14:19;6.50;84.61
47434;SHT31;33184;48.774;8.918;2023-04-25T21:19:40;6.49;84.50
47434;SHT31;33184;48.774;8.918;2023-04-25T21:25:01;6.53;84.61
47434;SHT31;33184;48.774;8.918;2023-04-25T21:30:25;6.63;84.77
47434;SHT31;33184;48.774;8.918;2023-04-25T21:35:46;6.65;84.67
47434;SHT31;33184;48.774;8.918;2023-04-25T21:41:06;6.63;84.46
47434;SHT31;33184;48.774;8.918;2023-04-25T21:46:27;6.62;84.04
47434;SHT31;33184;48.774;8.918;2023-04-25T21:51:47;6.50;83.92
47434;SHT31;33184;48.774;8.918;2023-04-25T21:57:08;6.50;84.04
47434;SHT31;33184;48.774;8.918;2023-04-25T22:02:30;6.54;83.94
47434;SHT31;33184;48.774;8.918;2023-04-25T22:07:53;6.49;83.63
47434;SHT31;33184;48.774;8.918;2023-04-25T22:13:15;6.46;83.59
47434;SHT31;33184;48.774;8.918;2023-04-25T22:18:36;6.48;83.57
47434;SHT31;33184;48.774;8.918;2023-04-25T22:23:57;6.43;83.51
47434;SHT31;33184;48.774;8.918;2023-04-25T22:29:17;6.39;83.38
47434;SHT31;33184;48.774;8.918;2023-04-25T22:34:37;6.46;82.97
47434;SHT31;33184;48.774;8.918;2023-04-25T22:39:58;6.46;82.57
47434;SHT31;33184;48.774;8.918;2023-04-25T22:45:18;6.49;82.46
47434;SHT31;33184;48.774;8.918;2023-04-25T22:50:39;6.53;82.19
47434;SHT31;33184;48.774;8.918;2023-04-25T22:56:00;6.56;81.94
47434;SHT31;33184;48.774;8.918;2023-04-25T23:01:21;6.52;81.58
47434;SHT31;33184;48.774;8.918;2023-04-25T23:06:41;6.53;81.83
47434;SHT31;33184;48.774;8.918;2023-04-25T23:12:03;6.48;81.41
47434;SHT31;33184;48.774;8.918;2023-04-25T23:17:23;6.42;81.67
47434;SHT31;33184;48.774;8.918;2023-04-25T23:22:44;6.42;82.10
47434;SHT31;33184;48.774;8.918;2023-04-25T23:28:05;6.40;82.09
47434;SHT31;33184;48.774;8.918;2023-04-25T23:33:25;6.33;81.79
47434;SHT31;33184;48.774;8.918;2023-04-25T23:38:46;6.28;81.73
47434;SHT31;33184;48.774;8.918;2023-04-25T23:44:07;6.22;81.34
47434;SHT31;33184;48.774;8.918;2023-04-25T23:49:28;6.21;81.28
47434;SHT31;33184;48.774;8.918;2023-04-25T23:54:49;6.16;80.82
